Casper, WY

9:20 PM MST on December 28, 2014 (GMT -0700)
Casper Mountain Foothills | Change Station
CLOSE
Current Station
Personal Weather Station
Location: Casper, WY
Elevation: 5334 ft
Nearby Weather Stations
Active Advisory: Winter Weather Advisory

Elev 5334 ft 42.83 °N, 106.31 °W | Updated 6 seconds ago

Snow
Snow
20.3 °F
Feels Like 20 °F
N
0.0
Wind Variable Wind from NW
Gusts 2.0 mph

Today
High -- | Low -- °F
--% Chance of Precip.
Yesterday
High -- | Low -- °F
Precip. -- in
7:35 AM 4:38 PM
First Quarter, 54% visible
Pressure 30.10 in
Visibility 0.8 miles
Clouds
Windchill 20 °F
Dew Point 16 °F
Humidity 83%
Rainfall 0.00 in
Snow Depth Not available.
UV Not available.
Pollen .10 out of 12
Air Quality Not available.
Flu Activity Not available.
METAR KCPR 290353Z 34007KT 3/4SM -SN BR VV009 M07/M08 A2996 RMK AO2 SLP192 P0003 T10671083

More Conditions Fewer Conditions

Pressure 30.10 in
Visibility 0.8 miles
Clouds
Windchill 20 °F
Dew Point 16 °F
Humidity 83%
Rainfall 0.00 in
Snow Depth Not available.
UV Not available.
Pollen .10 out of 12
Air Quality Not available.
Flu Activity Not available.
METAR KCPR 290353Z 34007KT 3/4SM -SN BR VV009 M07/M08 A2996 RMK AO2 SLP192 P0003 T10671083

More Conditions Fewer Conditions

10-Day Weather Forecast

Almanac

Astronomy

Dec. 28, 2014 Rise Set
Actual Time
Civil Twilight
Nautical Twilight
Astronomical Twilight
Moon
Length of Visible Light
Length of Day
Tomorrow will be .
, % of the Moon is Illuminated

Today's Extremes

State Highs State Lows

Community

WunderPhotos

Upload Photos

1,781,534 photos uploaded!

WunderBlogs® & News

Nearby

Air Quality

  Air Quality AQ Index Pollutant
Not available.

Snow Depth

Station Depth Elevation

Earthquake Activity

City Distance Mag. Time & Date
Minimum magnitude displayed is 2.5.

Coastal Water Temperatures

Place Temperature

Nearby Weather Stations